WetterOnline ( https://www.wetteronline.de )

Wetter aktuell Wunsiedel

Aktuelles Wetter: Wunsiedel-Schönbrunn (622m)

6-stündlich | Neueste Meldungen
Ortszeit Temperatur Wetter
Mo, 03.10. 20:00 9.9° C bedeckt
Mo, 03.10. 14:00 10.7° C bedeckt
Mo, 03.10. 8:00 7.8° C wolkenlos
Mo, 03.10. 2:00 8.9° C wolkenlos
So, 02.10. 20:00 10.0° C leichter Regen
So, 02.10. 14:00 10.9° C bewölkt
So, 02.10. 8:00 10.0° C bewölkt
So, 02.10. 2:00 9.4° C bewölkt
Ortszeit Temperatur Wetter
Mo, 03.10. 21:30 8.9° C wolkig
Mo, 03.10. 21:20 8.9° C wolkig
Mo, 03.10. 21:10 8.9° C fast wolkenlos
Mo, 03.10. 21:00 9.1° C wolkenlos
Mo, 03.10. 20:50 9.1° C wolkenlos
Mo, 03.10. 20:40 9.1° C fast wolkenlos
Mo, 03.10. 20:30 9.3° C wolkig
Mo, 03.10. 20:00 9.9° C bedeckt
Mo, 03.10. 19:30 9.9° C bedeckt
Mo, 03.10. 19:00 9.9° C wolkig
Mo, 03.10. 18:30 10.5° C bewölkt
Ortszeit Relative Feuchte Sichtweite
Mo, 03.10. 20:00 80% 55 km
Mo, 03.10. 14:00 75% 45 km
Mo, 03.10. 8:00 87% 45 km
Mo, 03.10. 2:00 88% 35 km
So, 02.10. 20:00 77% 40 km
So, 02.10. 14:00 88% 55 km
So, 02.10. 8:00 93% 30 km
So, 02.10. 2:00 93% 50 km
Ortszeit Relative Feuchte Sichtweite
Mo, 03.10. 21:30 83% 50 km
Mo, 03.10. 21:20 83% -
Mo, 03.10. 21:10 82% -
Mo, 03.10. 21:00 80% 50 km
Mo, 03.10. 20:50 80% -
Mo, 03.10. 20:40 80% -
Mo, 03.10. 20:30 80% 50 km
Mo, 03.10. 20:00 80% 55 km
Mo, 03.10. 19:30 80% 50 km
Mo, 03.10. 19:00 79% 60 km
Mo, 03.10. 18:30 76% 50 km
Ortszeit Niederschlagsmenge Niederschlagsart
Mo, 03.10. 20:00 0.0 l/m2 in 12 Std. -
Mo, 03.10. 14:00 0.0 l/m2 in 6 Std. -
Mo, 03.10. 8:00 0.1 l/m2 in 12 Std. -
Mo, 03.10. 2:00 0.1 l/m2 in 6 Std. Regen
So, 02.10. 20:00 2 l/m2 in 12 Std. Regen
So, 02.10. 14:00 2 l/m2 in 6 Std. Regen
So, 02.10. 8:00 0.3 l/m2 in 12 Std. Regen
So, 02.10. 2:00 0.3 l/m2 in 6 Std. Regen
Ortszeit Niederschlagsmenge Niederschlagsart
Mo, 03.10. 21:30 0.0 l/m2 in 1 Std. -
Mo, 03.10. 21:20 keine Meldung -
Mo, 03.10. 21:10 keine Meldung -
Mo, 03.10. 21:00 0.0 l/m2 in 1 Std. -
Mo, 03.10. 20:50 keine Meldung -
Mo, 03.10. 20:40 keine Meldung -
Mo, 03.10. 20:30 0.0 l/m2 in 1 Std. -
Mo, 03.10. 20:00 0.0 l/m2 in 1 Std. -
Mo, 03.10. 19:30 0.0 l/m2 in 1 Std. -
Mo, 03.10. 19:00 0.0 l/m2 in 1 Std. -
Mo, 03.10. 18:30 0.0 l/m2 in 1 Std. -
Ortszeit Stärke Spitze Richtung
km/h Bft. km/h Grad Sektor
Mo, 03.10. 20:00 20 4 33 290° W
Mo, 03.10. 14:00 18 3 40 290° W
Mo, 03.10. 8:00 11 2 32 260° W
Mo, 03.10. 2:00 19 3 35 290° W
So, 02.10. 20:00 25 4 40 300° NW
So, 02.10. 14:00 17 3 35 250° W
So, 02.10. 8:00 7 2 31 230° SW
So, 02.10. 2:00 9 2 41 220° SW
Ortszeit Stärke Spitze Richtung
km/h Bft. km/h Grad Sektor
Mo, 03.10. 21:30 18 3 25 290° W
Mo, 03.10. 21:20 18 3 - 290° W
Mo, 03.10. 21:10 19 3 - 290° W
Mo, 03.10. 21:00 18 3 25 300° NW
Mo, 03.10. 20:50 18 3 - 300° NW
Mo, 03.10. 20:40 19 3 - 300° NW
Mo, 03.10. 20:30 18 3 25 290° W
Mo, 03.10. 20:00 20 4 30 290° W
Mo, 03.10. 19:30 9 2 17 270° W
Mo, 03.10. 19:00 9 2 22 270° W
Mo, 03.10. 18:30 15 3 22 280° W
Ortszeit Untergrenze Bedeckung Gattung
total tief tief mittel hoch
Mo, 03.10. 20:00 1320 m 8/8 8/8 - - -
Mo, 03.10. 14:00 600 m 8/8 8/8 - - -
Mo, 03.10. 8:00 - 0/8 0/8 - - -
Mo, 03.10. 2:00 - 0/8 0/8 - - -
So, 02.10. 20:00 1440 m 7/8 7/8 - - -
So, 02.10. 14:00 390 m 7/8 7/8 - - -
So, 02.10. 8:00 300 m 7/8 7/8 - - -
So, 02.10. 2:00 390 m 7/8 7/8 - - -
Ortszeit Bedeckungsgrad in Achtel und Wolkenuntergrenze
Mo, 03.10. 21:30 5(1500m)
Mo, 03.10. 21:20 5(1500m)
Mo, 03.10. 21:10 1
Mo, 03.10. 21:00 keine Wolken
Mo, 03.10. 20:50 keine Wolken
Mo, 03.10. 20:40 1
Mo, 03.10. 20:30 5(1320m)
Mo, 03.10. 20:00 8(1320m)
Mo, 03.10. 19:30 8(1470m)
Mo, 03.10. 19:00 6(1440m)
Mo, 03.10. 18:30 7(1440m)
Ortszeit Luftdruck NN (hPa) Tendenz (hPa in 3 Std.)
Mo, 03.10. 20:00 1026 0,0
Mo, 03.10. 14:00 1026 + 0,2
Mo, 03.10. 8:00 1025 + 0,7
Mo, 03.10. 2:00 1023 + 1,1
So, 02.10. 20:00 1019 + 1,2
So, 02.10. 14:00 1017 - 0,7
So, 02.10. 8:00 1018 0,0
So, 02.10. 2:00 1017 + 2,4
Ortszeit Luftdruck NN (hPa) Tendenz (hPa in 3 Std.)
Mo, 03.10. 21:30 1026 + 0,2
Mo, 03.10. 21:20 1026 keine Meldung
Mo, 03.10. 21:10 1026 keine Meldung
Mo, 03.10. 21:00 1026 + 0,1
Mo, 03.10. 20:50 1026 keine Meldung
Mo, 03.10. 20:40 1026 keine Meldung
Mo, 03.10. 20:30 1026 - 0,2
Mo, 03.10. 20:00 1026 0,0
Mo, 03.10. 19:30 1026 0,0
Mo, 03.10. 19:00 1025 - 0,2
Mo, 03.10. 18:30 1025 - 0,3
Ortszeit Schneehöhe (cm)
Mo, 03.10. 20:00 0
Mo, 03.10. 14:00 0
Mo, 03.10. 8:00 0
Mo, 03.10. 2:00 0
So, 02.10. 20:00 0
So, 02.10. 14:00 0
So, 02.10. 8:00 0
So, 02.10. 2:00 0
Ortszeit Schneehöhe (cm)
Mo, 03.10. 21:30 0
Mo, 03.10. 21:20 0
Mo, 03.10. 21:10 0
Mo, 03.10. 21:00 0
Mo, 03.10. 20:50 0
Mo, 03.10. 20:40 0
Mo, 03.10. 20:30 0
Mo, 03.10. 20:00 0
Mo, 03.10. 19:30 0
Mo, 03.10. 19:00 0
Mo, 03.10. 18:30 0
Link zu dieser Seite / Seite empfehlen

Das Wetter in ...